createdAt,value
2019-03-04T00:01:12.536Z,2.73
2019-03-04T00:03:45.388Z,2.47
2019-03-04T00:06:17.035Z,3.50
2019-03-04T00:08:48.697Z,2.50
2019-03-04T00:11:20.472Z,4.47
2019-03-04T00:13:52.540Z,3.07
2019-03-04T00:16:25.743Z,3.20
2019-03-04T00:18:58.090Z,3.50
2019-03-04T00:21:31.107Z,3.50
2019-03-04T00:24:04.309Z,3.00
2019-03-04T00:26:36.024Z,4.00
2019-03-04T00:29:08.065Z,4.20
2019-03-04T00:31:39.743Z,5.00
2019-03-04T00:34:12.294Z,5.97
2019-03-04T00:36:43.976Z,4.97
2019-03-04T00:39:15.674Z,4.13
2019-03-04T00:41:48.607Z,4.10
2019-03-04T00:44:20.932Z,3.00
2019-03-04T00:46:53.580Z,3.80
2019-03-04T00:49:27.084Z,2.70
2019-03-04T00:51:59.154Z,2.80
2019-03-04T00:54:32.518Z,3.07
2019-03-04T00:57:04.908Z,3.33
2019-03-04T00:59:37.323Z,3.20
2019-03-04T01:02:09.172Z,2.63
2019-03-04T01:04:40.961Z,3.77
2019-03-04T01:07:14.377Z,2.57
2019-03-04T01:09:46.175Z,2.20
2019-03-04T01:12:19.367Z,2.40
2019-03-04T01:14:53.273Z,2.23
2019-03-04T01:17:25.551Z,1.93
2019-03-04T01:19:58.273Z,2.00
2019-03-04T01:22:29.922Z,2.37
2019-03-04T01:25:03.465Z,2.47
2019-03-04T01:27:37.498Z,2.20
2019-03-04T01:30:23.720Z,2.47
2019-03-04T01:32:55.977Z,2.00
2019-03-04T01:35:27.639Z,2.10
2019-03-04T01:37:59.860Z,1.97
2019-03-04T01:40:32.680Z,2.53
2019-03-04T01:43:05.721Z,2.53
2019-03-04T01:45:39.764Z,2.20
2019-03-04T01:48:12.690Z,2.10
2019-03-04T01:50:45.263Z,2.20
2019-03-04T01:53:17.801Z,2.20
2019-03-04T01:55:50.694Z,1.90
2019-03-04T01:58:23.356Z,1.70
2019-03-04T02:00:57.303Z,1.97
2019-03-04T02:03:39.660Z,2.10
2019-03-04T02:06:11.374Z,2.40
2019-03-04T02:08:43.141Z,1.93
2019-03-04T02:11:15.336Z,1.80
2019-03-04T02:13:47.059Z,1.80
2019-03-04T02:16:18.839Z,2.20
2019-03-04T02:18:51.799Z,2.10
2019-03-04T02:21:24.824Z,1.93
2019-03-04T02:23:56.986Z,2.30
2019-03-04T02:26:31.602Z,1.83
2019-03-04T02:29:04.839Z,2.47
2019-03-04T02:31:38.364Z,2.00
2019-03-04T02:34:11.358Z,2.07
2019-03-04T02:36:44.103Z,2.10
2019-03-04T02:39:16.699Z,2.90
2019-03-04T02:41:49.047Z,2.10
2019-03-04T02:44:22.255Z,2.10
2019-03-04T02:46:54.963Z,2.20
2019-03-04T02:49:27.716Z,1.93
2019-03-04T02:51:59.913Z,2.13
2019-03-04T02:54:31.680Z,2.30
2019-03-04T02:57:03.888Z,2.30
2019-03-04T02:59:35.783Z,2.20
2019-03-04T03:02:09.203Z,2.17
2019-03-04T03:04:41.643Z,1.80
2019-03-04T03:07:14.433Z,2.10
2019-03-04T03:09:46.089Z,2.20
2019-03-04T03:12:17.712Z,1.77
2019-03-04T03:14:49.653Z,2.10
2019-03-04T03:17:21.258Z,2.23
2019-03-04T03:19:55.388Z,2.33
2019-03-04T03:22:27.011Z,1.90
2019-03-04T03:24:59.073Z,1.80
2019-03-04T03:27:30.860Z,2.17
2019-03-04T03:30:02.562Z,1.90
2019-03-04T03:32:34.688Z,2.27
2019-03-04T03:35:08.755Z,2.00
2019-03-04T03:37:41.453Z,1.80
2019-03-04T03:40:15.356Z,2.00
2019-03-04T03:42:48.321Z,2.20
2019-03-04T03:45:21.021Z,1.90
2019-03-04T03:47:53.922Z,2.30
2019-03-04T03:50:28.741Z,1.80
2019-03-04T03:53:00.718Z,1.77
2019-03-04T03:55:34.104Z,2.17
2019-03-04T03:58:06.136Z,2.10
2019-03-04T04:00:38.135Z,2.10
2019-03-04T04:03:09.836Z,2.33
2019-03-04T04:05:42.460Z,2.27
2019-03-04T04:08:15.283Z,2.40
2019-03-04T04:10:50.179Z,2.07
2019-03-04T04:13:21.900Z,2.10
2019-03-04T04:15:53.817Z,1.90
2019-03-04T04:18:28.035Z,2.60
2019-03-04T04:21:00.057Z,1.93
2019-03-04T04:23:31.696Z,2.17
2019-03-04T04:26:05.647Z,2.00
2019-03-04T04:28:38.170Z,1.87
2019-03-04T04:31:10.925Z,2.10
2019-03-04T04:33:43.572Z,1.90
2019-03-04T04:36:15.401Z,1.77
2019-03-04T04:38:47.427Z,2.90
2019-03-04T04:41:19.270Z,2.40
2019-03-04T04:43:51.741Z,2.77
2019-03-04T04:46:51.680Z,2.53
2019-03-04T04:49:25.031Z,2.60
2019-03-04T04:51:57.651Z,2.93
2019-03-04T04:54:29.580Z,2.60
2019-03-04T04:57:01.212Z,2.70
2019-03-04T04:59:33.961Z,2.80
2019-03-04T05:02:05.841Z,2.87
2019-03-04T05:04:39.536Z,2.70
2019-03-04T05:07:11.178Z,2.70
2019-03-04T05:09:43.067Z,2.30
2019-03-04T05:12:16.378Z,2.60
2019-03-04T05:14:49.038Z,2.30
2019-03-04T05:17:20.823Z,2.07
2019-03-04T05:19:54.005Z,2.43
2019-03-04T05:22:27.231Z,2.30
2019-03-04T05:24:59.019Z,2.53
2019-03-04T05:27:30.899Z,2.73
2019-03-04T05:30:03.276Z,2.37
2019-03-04T05:32:35.302Z,2.10
2019-03-04T05:35:07.045Z,2.13
2019-03-04T05:37:39.535Z,2.10
2019-03-04T05:40:14.481Z,2.20
2019-03-04T05:42:46.616Z,2.53
2019-03-04T05:45:20.165Z,2.43
2019-03-04T05:47:52.400Z,2.20
2019-03-04T05:50:24.973Z,2.10
2019-03-04T05:52:57.133Z,2.40
2019-03-04T05:55:29.012Z,2.50
2019-03-04T05:58:00.683Z,2.93
2019-03-04T06:00:38.313Z,2.27
2019-03-04T06:03:12.223Z,2.87
2019-03-04T06:05:43.907Z,2.23
2019-03-04T06:08:16.064Z,2.47
2019-03-04T06:10:48.024Z,2.33
2019-03-04T06:13:20.300Z,2.43
2019-03-04T06:15:53.115Z,2.67
2019-03-04T06:18:24.815Z,2.50
2019-03-04T06:20:56.926Z,2.70
2019-03-04T06:23:29.188Z,2.83
2019-03-04T06:26:01.096Z,2.47
2019-03-04T06:28:33.151Z,2.73
2019-03-04T06:31:05.002Z,2.60
2019-03-04T06:33:36.628Z,3.87
2019-03-04T06:36:08.577Z,6.20
2019-03-04T06:38:40.667Z,4.00
2019-03-04T06:41:12.366Z,3.20
2019-03-04T06:43:44.257Z,2.30
2019-03-04T06:46:18.682Z,2.50
2019-03-04T06:48:50.875Z,2.20
2019-03-04T06:51:43.431Z,2.67
2019-03-04T06:55:00.754Z,2.00
2019-03-04T06:57:43.610Z,2.57
2019-03-04T07:00:58.156Z,2.70
2019-03-04T07:03:34.307Z,2.00
2019-03-04T07:06:06.187Z,1.93
2019-03-04T07:09:12.941Z,2.00
2019-03-04T07:11:52.254Z,1.70
2019-03-04T07:14:24.227Z,2.10
2019-03-04T07:16:56.012Z,1.73
2019-03-04T07:19:34.568Z,1.63
2019-03-04T07:22:07.827Z,1.90
2019-03-04T07:24:39.577Z,1.87
2019-03-04T07:27:13.072Z,1.70
2019-03-04T07:29:44.818Z,1.37
2019-03-04T07:32:16.989Z,2.70
2019-03-04T07:34:49.071Z,1.30
2019-03-04T07:37:20.706Z,1.27
2019-03-04T07:39:53.132Z,2.50
2019-03-04T07:42:25.024Z,1.40
2019-03-04T07:44:57.560Z,1.30
2019-03-04T07:47:29.594Z,1.20
2019-03-04T07:50:02.624Z,1.20
2019-03-04T07:52:34.592Z,1.10
2019-03-04T07:55:07.733Z,1.20
2019-03-04T07:57:39.774Z,1.10
2019-03-04T08:00:12.912Z,1.53
2019-03-04T08:02:44.832Z,1.47
2019-03-04T08:05:18.354Z,1.30
2019-03-04T08:07:52.646Z,1.57
2019-03-04T08:11:11.780Z,1.20
2019-03-04T08:13:49.855Z,1.50
2019-03-04T08:16:21.524Z,1.20
2019-03-04T08:18:53.645Z,1.03
2019-03-04T08:21:25.764Z,1.10
2019-03-04T08:23:58.890Z,1.43
2019-03-04T08:26:30.707Z,1.50
2019-03-04T08:29:04.330Z,1.20
2019-03-04T08:31:38.209Z,1.30
2019-03-04T08:34:10.180Z,1.20
2019-03-04T08:36:42.533Z,1.20
2019-03-04T08:39:14.839Z,1.57
2019-03-04T08:41:47.186Z,1.10
2019-03-04T08:44:18.903Z,1.20
2019-03-04T08:46:50.988Z,1.00
2019-03-04T08:49:24.228Z,1.00
2019-03-04T08:51:57.289Z,1.20
2019-03-04T08:54:29.799Z,1.10
2019-03-04T08:57:04.192Z,1.17
2019-03-04T08:59:34.963Z,1.10
2019-03-04T09:02:09.348Z,1.50
2019-03-04T09:04:41.063Z,1.10
2019-03-04T09:07:13.336Z,1.20
2019-03-04T09:09:45.672Z,1.10
2019-03-04T09:12:18.522Z,1.10
2019-03-04T09:14:51.341Z,1.10
2019-03-04T09:17:23.851Z,2.07
2019-03-04T09:19:55.916Z,1.20
2019-03-04T09:22:28.688Z,1.00
2019-03-04T09:25:01.020Z,1.43
2019-03-04T09:27:34.127Z,0.90
2019-03-04T09:30:07.228Z,1.00
2019-03-04T09:32:38.994Z,1.10
2019-03-04T09:35:12.365Z,1.40
2019-03-04T09:37:44.160Z,1.20
2019-03-04T09:40:17.466Z,1.10
2019-03-04T09:42:50.822Z,1.50
2019-03-04T09:45:22.834Z,1.10
2019-03-04T09:47:55.206Z,1.17
2019-03-04T09:50:26.951Z,1.17
2019-03-04T09:52:58.652Z,1.50
2019-03-04T09:55:31.004Z,1.20
2019-03-04T09:58:02.787Z,1.70
2019-03-04T10:01:23.184Z,1.27
2019-03-04T10:05:02.561Z,1.27
2019-03-04T10:07:56.712Z,1.93
2019-03-04T10:11:21.263Z,1.10
2019-03-04T10:14:41.662Z,1.20
2019-03-04T10:17:39.315Z,1.30
2019-03-04T10:20:51.631Z,1.17
2019-03-04T10:24:19.941Z,1.53
2019-03-04T10:27:31.951Z,1.50
2019-03-04T10:30:58.959Z,1.40
2019-03-04T10:34:51.952Z,1.20
2019-03-04T10:38:33.101Z,1.50
2019-03-04T10:41:48.523Z,1.27
2019-03-04T10:45:24.278Z,1.60
2019-03-04T10:47:56.301Z,1.20
2019-03-04T10:50:29.024Z,1.30
2019-03-04T10:53:00.789Z,1.20
2019-03-04T10:55:41.612Z,1.40
2019-03-04T10:58:07.707Z,1.73
2019-03-04T11:00:40.502Z,1.20
2019-03-04T11:03:12.420Z,1.30
2019-03-04T11:05:45.987Z,1.27
2019-03-04T11:08:18.146Z,1.83
2019-03-04T11:10:50.293Z,1.60
2019-03-04T11:13:22.481Z,1.60
2019-03-04T11:15:54.482Z,1.53
2019-03-04T11:18:26.371Z,1.40
2019-03-04T11:20:58.784Z,1.30
2019-03-04T11:23:31.119Z,1.50
2019-03-04T11:26:03.063Z,1.60
2019-03-04T11:28:35.300Z,1.53
2019-03-04T11:31:07.414Z,1.40
2019-03-04T11:33:39.296Z,1.47
2019-03-04T11:36:11.727Z,1.33
2019-03-04T11:38:47.154Z,1.60
2019-03-04T11:41:21.776Z,1.60
2019-03-04T11:43:53.472Z,1.70
2019-03-04T11:46:26.136Z,1.80
2019-03-04T11:48:58.424Z,1.43
2019-03-04T11:51:30.082Z,1.50
2019-03-04T11:54:04.180Z,1.63
2019-03-04T11:56:35.833Z,1.50
2019-03-04T11:59:07.571Z,1.30
2019-03-04T12:01:46.037Z,1.57
2019-03-04T12:04:19.530Z,1.20
2019-03-04T12:06:52.828Z,1.80
2019-03-04T12:09:24.588Z,2.20
2019-03-04T12:11:57.379Z,1.70
2019-03-04T12:14:29.454Z,1.50
2019-03-04T12:17:01.265Z,1.43
2019-03-04T12:19:33.581Z,1.60
2019-03-04T12:22:06.189Z,1.80
2019-03-04T12:24:40.447Z,2.13
2019-03-04T12:27:13.556Z,1.30
2019-03-04T12:29:45.980Z,1.40
2019-03-04T12:32:29.032Z,1.60
2019-03-04T12:35:01.208Z,1.50
2019-03-04T12:37:34.530Z,1.77
2019-03-04T12:40:09.293Z,2.00
2019-03-04T12:42:41.265Z,1.90
2019-03-04T12:45:15.488Z,1.60
2019-03-04T12:47:49.257Z,2.23
2019-03-04T12:50:24.823Z,2.73
2019-03-04T12:52:57.554Z,1.80
2019-03-04T12:55:31.242Z,1.60
2019-03-04T12:58:03.605Z,1.80
2019-03-04T13:00:36.527Z,1.87
2019-03-04T13:03:17.318Z,1.80
2019-03-04T13:05:49.722Z,1.57
2019-03-04T13:08:21.758Z,1.67
2019-03-04T13:10:53.990Z,2.07
2019-03-04T13:13:26.664Z,1.80
2019-03-04T13:16:00.595Z,2.33
2019-03-04T13:18:32.716Z,2.33
2019-03-04T13:21:04.467Z,1.70
2019-03-04T13:23:36.114Z,2.00
2019-03-04T13:26:09.623Z,1.60
2019-03-04T13:28:42.421Z,1.57
2019-03-04T13:31:14.256Z,1.57
2019-03-04T13:33:46.005Z,2.33
2019-03-04T13:36:19.440Z,2.00
2019-03-04T13:38:51.196Z,1.53
2019-03-04T13:41:22.905Z,1.93
2019-03-04T13:43:55.444Z,1.80
2019-03-04T13:46:27.084Z,1.60
2019-03-04T13:48:59.125Z,2.00
2019-03-04T13:51:31.080Z,2.30
2019-03-04T13:54:03.046Z,2.77
2019-03-04T13:56:35.322Z,2.17
2019-03-04T13:59:07.941Z,1.70
2019-03-04T14:01:39.607Z,1.70
2019-03-04T14:04:11.639Z,1.27
2019-03-04T14:06:43.391Z,1.60
2019-03-04T14:09:19.418Z,1.50
2019-03-04T14:11:52.153Z,1.90
2019-03-04T14:14:26.075Z,1.83
2019-03-04T14:16:57.854Z,1.70
2019-03-04T14:19:29.775Z,1.97
2019-03-04T14:22:01.813Z,1.93
2019-03-04T14:24:34.510Z,1.90
2019-03-04T14:27:06.261Z,2.20
2019-03-04T14:29:38.868Z,1.80
2019-03-04T14:32:10.555Z,2.10
2019-03-04T14:34:42.252Z,1.87
2019-03-04T14:37:14.227Z,1.80
2019-03-04T14:39:45.975Z,1.57
2019-03-04T14:42:17.707Z,1.40
2019-03-04T14:44:50.035Z,2.00
2019-03-04T14:47:22.233Z,1.77
2019-03-04T14:49:54.056Z,2.20
2019-03-04T14:52:25.760Z,2.20
2019-03-04T14:54:57.651Z,1.80
2019-03-04T14:57:29.327Z,1.30
2019-03-04T15:00:01.653Z,1.30
2019-03-04T15:02:33.324Z,1.00
2019-03-04T15:05:05.618Z,1.40
2019-03-04T15:07:37.325Z,1.10
2019-03-04T15:10:09.225Z,1.40
2019-03-04T15:12:42.129Z,1.00
2019-03-04T15:15:15.003Z,1.10
2019-03-04T15:17:46.909Z,1.07
2019-03-04T15:20:20.853Z,1.10
2019-03-04T15:22:52.928Z,1.33
2019-03-04T15:25:28.979Z,1.40
2019-03-04T15:28:15.742Z,1.00
2019-03-04T15:30:49.771Z,1.20
2019-03-04T15:33:21.579Z,0.90
2019-03-04T15:35:53.267Z,0.93
2019-03-04T15:38:25.215Z,1.10
2019-03-04T15:40:57.077Z,1.10
2019-03-04T15:43:30.470Z,0.97
2019-03-04T15:46:03.145Z,0.90
2019-03-04T15:48:35.451Z,1.10
2019-03-04T15:51:07.274Z,1.10
2019-03-04T15:53:39.131Z,1.07
2019-03-04T15:56:11.319Z,1.00
2019-03-04T15:58:43.079Z,1.10
2019-03-04T16:01:15.595Z,1.50
2019-03-04T16:03:47.462Z,1.20
2019-03-04T16:06:19.146Z,1.30
2019-03-04T16:08:51.013Z,1.77
2019-03-04T16:11:23.111Z,1.40
2019-03-04T16:13:56.182Z,1.30
2019-03-04T16:16:28.055Z,1.20
2019-03-04T16:18:59.880Z,1.63
2019-03-04T16:21:31.532Z,1.30
2019-03-04T16:24:03.257Z,1.60
2019-03-04T16:26:35.514Z,1.20
2019-03-04T16:29:07.524Z,1.30
2019-03-04T16:31:39.215Z,1.33
2019-03-04T16:34:11.219Z,1.20
2019-03-04T16:36:42.909Z,1.00
2019-03-04T16:39:14.571Z,1.20
2019-03-04T16:41:46.314Z,1.10
2019-03-04T16:44:18.361Z,1.67
2019-03-04T16:46:50.489Z,1.40
2019-03-04T16:49:22.468Z,1.33
2019-03-04T16:51:54.124Z,1.20
2019-03-04T16:54:26.102Z,1.30
2019-03-04T16:56:57.815Z,1.53
2019-03-04T16:59:29.487Z,1.10
2019-03-04T17:02:01.370Z,1.60
2019-03-04T17:04:33.487Z,1.10
2019-03-04T17:07:05.887Z,1.57
2019-03-04T17:09:37.769Z,1.30
2019-03-04T17:12:10.476Z,1.20
2019-03-04T17:14:42.222Z,1.57
2019-03-04T17:17:15.377Z,1.50
2019-03-04T17:19:47.403Z,1.10
2019-03-04T17:22:19.463Z,1.40
2019-03-04T17:24:51.282Z,1.30
2019-03-04T17:27:22.992Z,1.00
2019-03-04T17:29:54.677Z,1.00
2019-03-04T17:32:26.340Z,1.23
2019-03-04T17:34:58.140Z,1.20
2019-03-04T17:37:29.792Z,1.00
2019-03-04T17:40:01.689Z,1.20
2019-03-04T17:42:33.522Z,1.27
2019-03-04T17:45:05.238Z,1.10
2019-03-04T17:47:37.524Z,1.00
2019-03-04T17:50:12.593Z,1.43
2019-03-04T17:52:44.388Z,1.03
2019-03-04T17:55:17.436Z,1.20
2019-03-04T17:57:50.719Z,1.43
2019-03-04T18:00:22.551Z,1.03
2019-03-04T18:02:54.272Z,1.00
2019-03-04T18:05:26.343Z,1.10
2019-03-04T18:07:58.264Z,1.20
2019-03-04T18:10:30.453Z,1.40
2019-03-04T18:13:02.608Z,1.60
2019-03-04T18:15:36.171Z,1.30
2019-03-04T18:18:07.912Z,1.10
2019-03-04T18:20:39.651Z,1.13
2019-03-04T18:23:11.693Z,1.30
2019-03-04T18:25:51.452Z,1.57
2019-03-04T18:28:41.181Z,1.20
2019-03-04T18:31:43.854Z,1.30
2019-03-04T18:35:25.017Z,1.20
2019-03-04T18:38:46.681Z,1.20
2019-03-04T18:41:43.574Z,1.50
2019-03-04T18:45:18.607Z,1.10
2019-03-04T18:48:59.759Z,1.33
2019-03-04T18:51:33.311Z,1.23
2019-03-04T18:54:15.491Z,1.23
2019-03-04T18:56:47.611Z,1.40
2019-03-04T18:59:20.312Z,1.30
2019-03-04T19:01:52.367Z,1.23
2019-03-04T19:04:24.096Z,1.30
2019-03-04T19:06:55.779Z,1.10
2019-03-04T19:09:27.626Z,1.20
2019-03-04T19:11:59.336Z,1.00
2019-03-04T19:14:31.156Z,1.30
2019-03-04T19:17:02.852Z,1.20
2019-03-04T19:19:34.616Z,1.60
2019-03-04T19:22:06.592Z,1.23
2019-03-04T19:24:38.498Z,1.47
2019-03-04T19:27:10.216Z,1.33
2019-03-04T19:29:42.076Z,1.17
2019-03-04T19:32:13.852Z,1.37
2019-03-04T19:34:45.551Z,1.30
2019-03-04T19:37:17.491Z,1.67
2019-03-04T19:39:49.453Z,1.50
2019-03-04T19:42:21.227Z,1.60
2019-03-04T19:44:53.064Z,1.20
2019-03-04T19:47:25.344Z,1.30
2019-03-04T19:49:57.133Z,1.60
2019-03-04T19:52:28.932Z,1.80
2019-03-04T19:55:00.755Z,1.23
2019-03-04T19:57:32.681Z,1.57
2019-03-04T20:00:05.303Z,1.40
2019-03-04T20:02:37.100Z,1.30
2019-03-04T20:05:09.135Z,1.10
2019-03-04T20:07:41.313Z,1.40
2019-03-04T20:10:13.803Z,1.40
2019-03-04T20:12:45.651Z,1.70
2019-03-04T20:15:22.736Z,1.60
2019-03-04T20:17:56.589Z,1.20
2019-03-04T20:20:28.460Z,1.40
2019-03-04T20:23:00.282Z,1.43
2019-03-04T20:25:32.118Z,1.33
2019-03-04T20:28:03.911Z,1.40
2019-03-04T20:30:35.690Z,1.60
2019-03-04T20:33:07.594Z,1.27
2019-03-04T20:35:39.550Z,1.30
2019-03-04T20:38:11.662Z,1.30
2019-03-04T20:40:43.449Z,1.30
2019-03-04T20:43:15.395Z,1.23
2019-03-04T20:45:47.331Z,1.10
2019-03-04T20:48:19.883Z,1.37
2019-03-04T20:50:51.697Z,1.23
2019-03-04T20:53:23.900Z,1.23
2019-03-04T20:55:55.751Z,1.37
2019-03-04T20:58:27.703Z,1.43
2019-03-04T21:00:59.445Z,1.43
2019-03-04T21:03:35.147Z,1.40
2019-03-04T21:06:05.642Z,1.10
2019-03-04T21:08:37.370Z,1.07
2019-03-04T21:11:09.676Z,1.47
2019-03-04T21:13:42.003Z,1.10
2019-03-04T21:16:13.714Z,1.30
2019-03-04T21:18:45.449Z,1.20
2019-03-04T21:21:17.529Z,1.30
2019-03-04T21:23:49.718Z,1.47
2019-03-04T21:26:28.015Z,1.07
2019-03-04T21:29:43.931Z,1.10
2019-03-04T21:33:08.039Z,1.20
2019-03-04T21:36:37.157Z,1.57
2019-03-04T21:39:09.753Z,1.03
2019-03-04T21:42:06.407Z,1.10
2019-03-04T21:45:25.782Z,1.20
2019-03-04T21:48:10.099Z,1.30
2019-03-04T21:51:25.961Z,1.10
2019-03-04T21:53:57.684Z,1.20
2019-03-04T21:57:17.226Z,1.20
2019-03-04T21:59:49.099Z,1.30
2019-03-04T22:02:59.090Z,1.70
2019-03-04T22:05:31.116Z,1.50
2019-03-04T22:08:02.759Z,1.30
2019-03-04T22:10:34.711Z,1.30
2019-03-04T22:13:06.769Z,1.13
2019-03-04T22:15:39.585Z,1.80
2019-03-04T22:18:13.087Z,1.30
2019-03-04T22:20:46.515Z,1.00
2019-03-04T22:23:18.319Z,1.00
2019-03-04T22:25:49.983Z,1.30
2019-03-04T22:28:21.716Z,1.40
2019-03-04T22:30:53.427Z,1.30
2019-03-04T22:33:27.966Z,1.20
2019-03-04T22:35:59.791Z,1.33
2019-03-04T22:39:10.775Z,1.10
2019-03-04T22:41:42.791Z,1.20
2019-03-04T22:44:14.499Z,1.20
2019-03-04T22:46:47.154Z,1.07
2019-03-04T22:49:19.454Z,1.20
2019-03-04T22:52:03.916Z,1.20
2019-03-04T22:54:35.622Z,1.37
2019-03-04T22:57:07.444Z,1.20
2019-03-04T22:59:39.096Z,1.30
2019-03-04T23:02:12.107Z,1.33
2019-03-04T23:04:54.541Z,1.30
2019-03-04T23:07:36.210Z,1.17
2019-03-04T23:10:32.679Z,1.20
2019-03-04T23:13:46.595Z,1.33
2019-03-04T23:16:22.659Z,1.20
2019-03-04T23:18:54.676Z,1.30
2019-03-04T23:21:26.745Z,1.10
2019-03-04T23:23:58.564Z,1.30
2019-03-04T23:26:30.174Z,1.40
2019-03-04T23:29:01.826Z,1.20
2019-03-04T23:31:33.491Z,1.13
2019-03-04T23:34:05.429Z,1.10
2019-03-04T23:36:37.084Z,1.30
2019-03-04T23:39:09.934Z,1.30
2019-03-04T23:41:41.570Z,1.00
2019-03-04T23:44:13.193Z,1.50
2019-03-04T23:46:44.814Z,1.30
2019-03-04T23:49:16.836Z,1.27
2019-03-04T23:51:48.719Z,1.30
2019-03-04T23:54:20.430Z,1.47
2019-03-04T23:56:52.085Z,1.47
2019-03-04T23:59:23.760Z,2.23
